Airfield :
LOGIN :

Register | Disclaimer

   EN    FR    IT 

 










Legend :    VFR   Marginal VFR   IFR   Intensive IFR   Very Intensive IFR
Visi :
Ceiling :
>= 8 km
>= 3000ft
5 to 8 km
1000 to 3000 ft
1500m to 5 km
500 to 1000 ft
800 to 1500m
200 to 500 ft
< 800m
< 200 ft
Symbols :   Thunderstorms  Fog  Heavy snow  Heavy precipitations  Wind > 20 kt
SIGMETs :     Misc.  Thunderstorms  Icing  Turbulence  Mountain Waves  Volcanic Ashes






- Airport Elevation : 768 ft
- IATA code : MXP


LIMC - Milano Malpensa

CURRENT METAR :
  • 232350Z 02005KT CAVOK M01/M02 Q0996 NOSIG

EXPIRED METARs :
  • 232320Z 04004KT CAVOK 00/M00 Q0996 NOSIG
  • 232250Z 36003KT 9999 FEW050 00/M01 Q0996 NOSIG
  • 232220Z 02004KT CAVOK 01/00 Q0996 NOSIG
  • 232150Z 01005KT 350V050 9999 FEW050 02/00 Q0996 NOSIG
  • 232120Z 02004KT 360V070 9999 BKN040 04/01 Q0996 NOSIG

TAF TAF LIMC
Valid from the 24 at 00:00 until the 25 at 06:00 UTC


232300Z 2400/2506 02005KT 9999 SCT080
BECMG 2400/2402 4000 BR
PROB40
TEMPO 2303/2407
TEMPO 2406/2415 35010KT



MET'MAP, your aeronautical weather chart ! - Copyright ORBIFLY December 2007 - Disclaimer

ORBIFLY MET'MAP TEAM :

Programming & Development : Alexandra Zaïnal
Concept & original design : Baudouin d'Aumeries
Assistance for programming : Marc-Olivier Méhu
Technical & hardware support : Manuel Goepfert

Contact : metmap@orbifly.com




SOURCES & CREDITS :

   NOAA